Weather at Albert J Lindberg Airport

Public forecast

Using degrees Fahrenheit for public forecast. Weather courtesy of forecast.io.

Closest aviation weather report (METAR) to Albert J Lindberg Airport

Closest report is Chippewa County International Airport, 13.1 nm (24.2 km) N. Retrieved 2022/01/16 17:56 UTC (23 minutes ago):

KCIU 161756Z AUTO 16007KT 10SM OVC011 M08/M10 A2986 RMK AO2 SLP129 60000 T10781100 11078 21117 56040 FZRANO

Closest aviation forecast (TAF) to Albert J Lindberg Airport

Closest forecast is Sault Ste Marie Airport, 27.2 nm (50.4 km) N. Retrieved 2022/01/16 14:42 UTC (4 hours ago):

TAF TAF CYAM 161340Z 1614/1702 08006KT 5SM -SHSN BKN015 TEMPO 1614/1616 P6SM NSW BKN025 FM161600 14010KT P6SM BKN025 BKN160 TEMPO 1616/1701 5SM -SHSN BKN020 FM170100 VRB03KT 5SM -SN OVC020 RMK NXT FCST BY 162000Z